createdAt,value
2023-05-17T00:00:19.905Z,6.90
2023-05-17T00:03:08.373Z,5.40
2023-05-17T00:05:36.895Z,8.60
2023-05-17T00:08:05.581Z,5.40
2023-05-17T00:10:34.051Z,6.30
2023-05-17T00:13:02.454Z,6.90
2023-05-17T00:15:30.898Z,7.30
2023-05-17T00:17:59.378Z,7.30
2023-05-17T00:20:27.963Z,8.50
2023-05-17T00:22:56.384Z,5.80
2023-05-17T00:25:24.745Z,6.20
2023-05-17T00:27:53.150Z,6.00
2023-05-17T00:30:21.553Z,5.80
2023-05-17T00:32:50.071Z,8.60
2023-05-17T00:35:20.335Z,6.50
2023-05-17T00:37:48.755Z,8.90
2023-05-17T00:40:17.177Z,6.30
2023-05-17T00:42:45.834Z,8.90
2023-05-17T00:45:14.227Z,8.40
2023-05-17T00:47:42.994Z,8.40
2023-05-17T00:50:12.376Z,9.60
2023-05-17T00:52:40.944Z,8.10
2023-05-17T00:55:09.748Z,7.30
2023-05-17T00:57:39.642Z,8.20
2023-05-17T01:00:08.922Z,7.00
2023-05-17T01:02:37.431Z,6.90
2023-05-17T01:05:06.854Z,8.50
2023-05-17T01:07:36.752Z,7.00
2023-05-17T01:10:05.781Z,5.60
2023-05-17T01:13:03.235Z,6.50
2023-05-17T01:15:33.948Z,6.20
2023-05-17T01:18:23.744Z,6.10
2023-05-17T01:20:54.751Z,7.00
2023-05-17T01:23:41.258Z,4.90
2023-05-17T01:26:39.879Z,6.70
2023-05-17T01:29:13.708Z,6.40
2023-05-17T01:31:42.248Z,4.80
2023-05-17T01:34:11.546Z,7.10
2023-05-17T01:36:39.977Z,7.80
2023-05-17T01:39:09.946Z,6.90
2023-05-17T01:41:41.582Z,8.20
2023-05-17T01:44:26.654Z,8.90
2023-05-17T01:47:02.669Z,8.20
2023-05-17T01:49:32.901Z,8.20
2023-05-17T01:52:07.216Z,7.00
2023-05-17T01:54:46.306Z,9.30
2023-05-17T01:57:16.723Z,6.90
2023-05-17T01:59:46.048Z,8.30
2023-05-17T02:02:14.576Z,6.20
2023-05-17T02:04:43.125Z,7.30
2023-05-17T02:07:11.572Z,8.20
2023-05-17T02:09:39.936Z,7.00
2023-05-17T02:12:08.597Z,7.70
2023-05-17T02:14:37.384Z,6.70
2023-05-17T02:17:06.110Z,6.80
2023-05-17T02:19:34.601Z,7.20
2023-05-17T02:22:03.005Z,8.30
2023-05-17T02:24:31.454Z,8.50
2023-05-17T02:26:59.835Z,7.90
2023-05-17T02:29:28.263Z,7.60
2023-05-17T02:31:56.671Z,6.50
2023-05-17T02:34:25.271Z,6.20
2023-05-17T02:36:53.771Z,5.50
2023-05-17T02:39:22.186Z,6.70
2023-05-17T02:41:50.784Z,7.30
2023-05-17T02:44:19.140Z,7.60
2023-05-17T02:46:47.541Z,7.60
2023-05-17T02:49:15.989Z,6.50
2023-05-17T02:51:44.487Z,7.40
2023-05-17T02:54:12.976Z,8.90
2023-05-17T02:56:41.454Z,7.30
2023-05-17T02:59:10.080Z,6.10
2023-05-17T03:01:40.166Z,9.80
2023-05-17T03:04:08.959Z,6.60
2023-05-17T03:06:38.432Z,7.30
2023-05-17T03:09:07.472Z,6.80
2023-05-17T03:11:36.328Z,11.00
2023-05-17T03:14:08.172Z,7.40
2023-05-17T03:16:36.651Z,7.00
2023-05-17T03:19:06.935Z,5.90
2023-05-17T03:21:35.547Z,6.80
2023-05-17T03:24:07.084Z,8.80
2023-05-17T03:26:36.446Z,5.40
2023-05-17T03:29:05.428Z,5.70
2023-05-17T03:31:33.949Z,5.70
2023-05-17T03:34:02.648Z,6.10
2023-05-17T03:36:31.650Z,5.80
2023-05-17T03:39:00.140Z,8.00
2023-05-17T03:41:28.678Z,6.70
2023-05-17T03:43:57.063Z,6.30
2023-05-17T03:46:26.030Z,6.10
2023-05-17T03:48:54.746Z,11.90
2023-05-17T03:51:23.549Z,8.60
2023-05-17T03:53:58.666Z,6.40
2023-05-17T03:56:27.702Z,8.40
2023-05-17T03:58:56.085Z,7.30
2023-05-17T04:01:24.816Z,8.10
2023-05-17T04:03:53.550Z,8.90
2023-05-17T04:06:23.077Z,9.10
2023-05-17T04:08:51.694Z,7.50
2023-05-17T04:11:24.063Z,9.70
2023-05-17T04:13:52.538Z,7.50
2023-05-17T04:16:21.495Z,7.20
2023-05-17T04:18:53.110Z,8.60
2023-05-17T04:21:21.690Z,8.80
2023-05-17T04:23:51.722Z,7.50
2023-05-17T04:26:20.765Z,8.40
2023-05-17T04:28:49.340Z,7.50
2023-05-17T04:31:18.694Z,6.30
2023-05-17T04:33:47.399Z,6.50
2023-05-17T04:36:16.054Z,6.90
2023-05-17T04:38:44.619Z,6.80
2023-05-17T04:41:15.199Z,6.60
2023-05-17T04:43:43.870Z,5.50
2023-05-17T04:46:18.033Z,7.80
2023-05-17T04:48:47.493Z,6.30
2023-05-17T04:51:16.045Z,9.70
2023-05-17T04:53:44.482Z,7.60
2023-05-17T04:56:16.559Z,7.30
2023-05-17T04:58:44.928Z,10.00
2023-05-17T05:01:13.929Z,6.00
2023-05-17T05:03:42.467Z,8.00
2023-05-17T05:06:12.239Z,5.00
2023-05-17T05:08:41.289Z,7.10
2023-05-17T05:11:10.967Z,7.20
2023-05-17T05:13:39.741Z,7.60
2023-05-17T05:16:08.847Z,7.30
2023-05-17T05:18:37.625Z,9.30
2023-05-17T05:21:06.631Z,8.70
2023-05-17T05:23:35.122Z,6.60
2023-05-17T05:26:04.760Z,5.50
2023-05-17T05:28:33.496Z,6.30
2023-05-17T05:31:02.399Z,7.90
2023-05-17T05:33:36.718Z,5.80
2023-05-17T05:36:05.740Z,6.90
2023-05-17T05:38:34.551Z,6.80
2023-05-17T05:41:03.209Z,8.00
2023-05-17T05:43:31.821Z,7.00
2023-05-17T05:46:00.286Z,6.70
2023-05-17T05:48:28.864Z,6.40
2023-05-17T05:50:57.356Z,10.00
2023-05-17T05:53:25.811Z,7.30
2023-05-17T05:55:56.363Z,6.20
2023-05-17T05:58:24.864Z,9.00
2023-05-17T06:00:53.489Z,6.90
2023-05-17T06:03:22.018Z,6.80
2023-05-17T06:05:51.232Z,5.40
2023-05-17T06:08:19.718Z,6.10
2023-05-17T06:10:48.189Z,8.30
2023-05-17T06:13:16.552Z,6.70
2023-05-17T06:15:45.024Z,9.00
2023-05-17T06:18:13.548Z,6.10
2023-05-17T06:20:42.572Z,8.20
2023-05-17T06:23:10.969Z,9.00
2023-05-17T06:25:40.552Z,7.70
2023-05-17T06:28:09.474Z,5.80
2023-05-17T06:30:38.139Z,9.40
2023-05-17T06:33:06.719Z,7.80
2023-05-17T06:35:51.702Z,6.90
2023-05-17T06:38:24.781Z,8.50
2023-05-17T06:40:54.829Z,6.60
2023-05-17T06:43:23.630Z,7.10
2023-05-17T06:45:52.183Z,7.30
2023-05-17T06:48:20.849Z,7.20
2023-05-17T06:50:49.518Z,8.90
2023-05-17T06:53:18.025Z,8.40
2023-05-17T06:55:46.619Z,6.50
2023-05-17T06:58:15.080Z,9.50
2023-05-17T07:00:43.516Z,7.30
2023-05-17T07:03:12.000Z,8.60
2023-05-17T07:05:40.515Z,8.50
2023-05-17T07:08:08.959Z,9.00
2023-05-17T07:10:37.434Z,7.80
2023-05-17T07:13:05.846Z,8.50
2023-05-17T07:15:34.335Z,8.00
2023-05-17T07:18:02.883Z,8.00
2023-05-17T07:20:31.946Z,8.90
2023-05-17T07:23:01.885Z,10.50
2023-05-17T07:25:30.612Z,7.20
2023-05-17T07:27:59.204Z,9.20
2023-05-17T07:30:27.744Z,7.60
2023-05-17T07:32:56.647Z,8.40
2023-05-17T07:35:25.027Z,8.90
2023-05-17T07:37:53.480Z,10.90
2023-05-17T07:40:22.302Z,8.80
2023-05-17T07:42:50.996Z,9.10
2023-05-17T07:45:19.722Z,9.30
2023-05-17T07:47:48.465Z,10.90
2023-05-17T07:50:16.981Z,13.00
2023-05-17T07:52:45.503Z,10.10
2023-05-17T07:55:16.625Z,10.50
2023-05-17T07:57:45.638Z,12.30
2023-05-17T08:00:14.609Z,9.50
2023-05-17T08:02:43.567Z,10.20
2023-05-17T08:05:12.717Z,12.50
2023-05-17T08:07:41.478Z,9.30
2023-05-17T08:10:10.606Z,10.50
2023-05-17T08:12:39.112Z,13.10
2023-05-17T08:15:07.798Z,12.50
2023-05-17T08:17:36.342Z,13.30
2023-05-17T08:20:08.175Z,14.00
2023-05-17T08:22:36.964Z,11.80
2023-05-17T08:25:05.989Z,13.30
2023-05-17T08:27:34.467Z,14.10
2023-05-17T08:30:04.157Z,9.00
2023-05-17T08:32:35.591Z,9.80
2023-05-17T08:35:05.052Z,9.60
2023-05-17T08:37:36.192Z,8.50
2023-05-17T08:40:05.350Z,8.00
2023-05-17T08:42:35.169Z,10.20
2023-05-17T08:45:05.170Z,11.00
2023-05-17T08:47:37.999Z,8.60
2023-05-17T08:50:07.895Z,9.70
2023-05-17T08:52:37.772Z,10.90
2023-05-17T08:55:07.648Z,8.70
2023-05-17T08:57:38.905Z,8.10
2023-05-17T09:00:13.721Z,6.60
2023-05-17T09:02:43.216Z,8.10
2023-05-17T09:05:13.853Z,9.00
2023-05-17T09:07:43.169Z,9.90
2023-05-17T09:10:13.884Z,7.60
2023-05-17T09:12:42.647Z,6.00
2023-05-17T09:15:16.286Z,9.50
2023-05-17T09:18:12.858Z,8.70
2023-05-17T09:20:42.173Z,7.60
2023-05-17T09:23:13.562Z,7.70
2023-05-17T09:25:49.318Z,6.00
2023-05-17T09:28:20.782Z,7.30
2023-05-17T09:30:50.063Z,6.90
2023-05-17T09:33:21.882Z,6.60
2023-05-17T09:35:50.450Z,7.70
2023-05-17T09:38:18.923Z,7.60
2023-05-17T09:40:48.436Z,10.20
2023-05-17T09:43:17.326Z,7.00
2023-05-17T09:45:45.894Z,7.90
2023-05-17T09:48:18.885Z,5.90
2023-05-17T09:50:51.414Z,7.00
2023-05-17T09:53:24.304Z,8.60
2023-05-17T09:55:54.904Z,6.90
2023-05-17T09:58:23.829Z,7.10
2023-05-17T10:00:54.678Z,6.60
2023-05-17T10:03:23.996Z,10.00
2023-05-17T10:05:54.218Z,11.00
2023-05-17T10:08:24.073Z,11.80
2023-05-17T10:10:55.862Z,10.30
2023-05-17T10:13:29.761Z,26.10
2023-05-17T10:15:58.575Z,16.90
2023-05-17T10:18:29.305Z,20.20
2023-05-17T10:20:58.781Z,13.30
2023-05-17T10:23:28.250Z,12.50
2023-05-17T10:25:57.166Z,11.90
2023-05-17T10:28:27.423Z,11.00
2023-05-17T10:30:58.557Z,9.90
2023-05-17T10:33:28.327Z,9.60
2023-05-17T10:35:57.568Z,12.60
2023-05-17T10:38:41.761Z,13.40
2023-05-17T10:41:15.690Z,10.30
2023-05-17T10:43:45.639Z,11.20
2023-05-17T10:46:21.500Z,10.50
2023-05-17T10:48:54.462Z,12.50
2023-05-17T10:51:24.984Z,10.70
2023-05-17T10:54:13.248Z,11.50
2023-05-17T10:56:47.316Z,13.80
2023-05-17T10:59:28.219Z,10.70
2023-05-17T11:02:05.527Z,14.90
2023-05-17T11:04:52.950Z,13.10
2023-05-17T11:07:49.062Z,12.40
2023-05-17T11:10:18.141Z,16.10
2023-05-17T11:13:12.658Z,12.10
2023-05-17T11:15:41.373Z,15.10
2023-05-17T11:18:22.342Z,13.70
2023-05-17T11:21:19.580Z,17.10
2023-05-17T11:23:49.681Z,15.30
2023-05-17T11:26:33.125Z,17.70
2023-05-17T11:29:07.161Z,16.30
2023-05-17T11:31:37.065Z,17.10
2023-05-17T11:34:06.179Z,13.60
2023-05-17T11:36:56.765Z,12.40
2023-05-17T11:39:25.665Z,14.10
2023-05-17T11:41:56.211Z,13.00
2023-05-17T11:44:29.660Z,12.10
2023-05-17T11:47:05.176Z,12.90
2023-05-17T11:49:38.152Z,11.60
2023-05-17T11:52:08.765Z,15.60
2023-05-17T11:54:39.205Z,16.00
2023-05-17T11:57:08.825Z,13.10
2023-05-17T11:59:40.934Z,13.40
2023-05-17T12:02:10.165Z,16.90
2023-05-17T12:04:39.841Z,23.50
2023-05-17T12:07:11.742Z,16.90
2023-05-17T12:09:40.825Z,15.30
2023-05-17T12:12:09.901Z,25.20
2023-05-17T12:14:38.368Z,23.10
2023-05-17T12:17:09.500Z,12.70
2023-05-17T12:19:38.164Z,20.70
2023-05-17T12:22:14.160Z,23.50
2023-05-17T12:24:43.835Z,16.30
2023-05-17T12:27:12.406Z,9.10
2023-05-17T12:29:40.875Z,9.00
2023-05-17T12:32:10.711Z,7.70
2023-05-17T12:34:39.448Z,8.00
2023-05-17T12:37:11.051Z,9.90
2023-05-17T12:39:40.632Z,8.70
2023-05-17T12:42:09.797Z,8.80
2023-05-17T12:44:38.353Z,8.60
2023-05-17T12:47:07.068Z,8.70
2023-05-17T12:49:40.280Z,8.10
2023-05-17T12:52:12.428Z,6.50
2023-05-17T12:54:41.396Z,8.20
2023-05-17T12:57:12.764Z,10.30
2023-05-17T12:59:52.748Z,8.50
2023-05-17T13:02:21.532Z,9.10
2023-05-17T13:04:50.234Z,6.80
2023-05-17T13:07:24.104Z,10.80
2023-05-17T13:09:52.779Z,9.00
2023-05-17T13:12:23.367Z,7.70
2023-05-17T13:14:53.630Z,8.80
2023-05-17T13:17:22.216Z,9.00
2023-05-17T13:19:51.058Z,9.30
2023-05-17T13:22:19.592Z,10.30
2023-05-17T13:24:47.992Z,11.80
2023-05-17T13:27:17.298Z,8.70
2023-05-17T13:29:45.818Z,8.90
2023-05-17T13:32:14.465Z,8.20
2023-05-17T13:34:42.898Z,11.60
2023-05-17T13:37:12.395Z,10.30
2023-05-17T13:39:43.941Z,7.60
2023-05-17T13:42:13.048Z,9.00
2023-05-17T13:44:42.088Z,12.00
2023-05-17T13:47:10.844Z,7.90
2023-05-17T13:49:39.312Z,8.80
2023-05-17T13:52:13.472Z,7.80
2023-05-17T13:54:41.981Z,8.30
2023-05-17T13:57:10.452Z,10.90
2023-05-17T13:59:40.110Z,7.80
2023-05-17T14:02:09.405Z,7.50
2023-05-17T14:04:37.971Z,12.70
2023-05-17T14:07:06.638Z,8.80
2023-05-17T14:09:36.936Z,8.20
2023-05-17T14:12:05.675Z,9.10
2023-05-17T14:14:34.094Z,9.90
2023-05-17T14:17:02.651Z,9.00
2023-05-17T14:19:33.178Z,9.60
2023-05-17T14:22:01.839Z,8.60
2023-05-17T14:24:30.320Z,8.30
2023-05-17T14:26:58.915Z,8.50
2023-05-17T14:29:27.433Z,8.50
2023-05-17T14:31:56.119Z,9.10
2023-05-17T14:34:24.734Z,7.90
2023-05-17T14:36:53.629Z,9.40
2023-05-17T14:39:22.048Z,10.20
2023-05-17T14:41:50.563Z,7.40
2023-05-17T14:44:18.950Z,6.90
2023-05-17T14:46:47.376Z,8.70
2023-05-17T14:49:16.007Z,8.50
2023-05-17T14:51:45.137Z,8.50
2023-05-17T14:54:13.929Z,9.50
2023-05-17T14:56:42.610Z,10.80
2023-05-17T14:59:11.106Z,10.60
2023-05-17T15:01:39.533Z,8.40
2023-05-17T15:04:08.017Z,7.00
2023-05-17T15:06:36.513Z,9.00
2023-05-17T15:09:04.901Z,11.40
2023-05-17T15:11:33.955Z,7.80
2023-05-17T15:14:02.557Z,9.30
2023-05-17T15:16:31.071Z,10.20
2023-05-17T15:18:59.919Z,9.90
2023-05-17T15:21:28.445Z,8.50
2023-05-17T15:23:56.910Z,8.80
2023-05-17T15:26:25.310Z,9.00
2023-05-17T15:28:53.751Z,8.20
2023-05-17T15:31:24.075Z,10.00
2023-05-17T15:33:52.571Z,8.50
2023-05-17T15:36:21.081Z,7.00
2023-05-17T15:38:49.521Z,8.60
2023-05-17T15:41:21.589Z,7.80
2023-05-17T15:43:50.062Z,8.90
2023-05-17T15:46:18.527Z,9.00
2023-05-17T15:48:46.940Z,7.90
2023-05-17T15:51:15.385Z,7.20
2023-05-17T15:53:43.981Z,7.80
2023-05-17T15:56:12.487Z,7.60
2023-05-17T15:58:41.074Z,8.80
2023-05-17T16:01:09.514Z,9.60
2023-05-17T16:03:38.015Z,9.90
2023-05-17T16:06:06.663Z,10.00
2023-05-17T16:08:35.162Z,7.80
2023-05-17T16:11:10.241Z,8.50
2023-05-17T16:13:38.814Z,11.50
2023-05-17T16:16:07.477Z,8.30
2023-05-17T16:18:36.363Z,8.80
2023-05-17T16:21:05.569Z,9.10
2023-05-17T16:23:34.030Z,7.40
2023-05-17T16:26:03.077Z,9.80
2023-05-17T16:28:32.587Z,7.90
2023-05-17T16:31:01.708Z,9.70
2023-05-17T16:33:30.238Z,11.60
2023-05-17T16:35:59.239Z,7.80
2023-05-17T16:38:27.687Z,8.60
2023-05-17T16:40:56.821Z,7.30
2023-05-17T16:43:25.326Z,8.20
2023-05-17T16:45:53.811Z,10.50
2023-05-17T16:48:22.344Z,9.90
2023-05-17T16:50:50.982Z,9.70
2023-05-17T16:53:19.506Z,7.50
2023-05-17T16:55:47.979Z,9.40
2023-05-17T16:58:16.369Z,7.70
2023-05-17T17:00:44.765Z,7.60
2023-05-17T17:03:13.268Z,7.90
2023-05-17T17:05:42.068Z,7.30
2023-05-17T17:08:10.703Z,10.40
2023-05-17T17:10:39.146Z,7.90
2023-05-17T17:13:07.529Z,6.60
2023-05-17T17:15:35.983Z,7.80
2023-05-17T17:18:04.493Z,7.30
2023-05-17T17:20:33.331Z,8.00
2023-05-17T17:23:01.757Z,7.00
2023-05-17T17:25:30.194Z,7.80
2023-05-17T17:27:58.577Z,8.20
2023-05-17T17:30:27.186Z,9.30
2023-05-17T17:32:56.085Z,6.60
2023-05-17T17:35:24.704Z,10.00
2023-05-17T17:37:53.486Z,7.80
2023-05-17T17:40:22.126Z,6.40
2023-05-17T17:42:50.708Z,8.50
2023-05-17T17:45:19.183Z,7.50
2023-05-17T17:47:47.738Z,6.90
2023-05-17T17:50:16.467Z,8.20
2023-05-17T17:53:09.130Z,8.10
2023-05-17T17:55:37.626Z,8.90
2023-05-17T17:58:06.019Z,9.80
2023-05-17T18:00:34.556Z,7.60
2023-05-17T18:03:03.038Z,7.40
2023-05-17T18:05:31.493Z,12.40
2023-05-17T18:08:00.133Z,9.00
2023-05-17T18:10:28.868Z,10.20
2023-05-17T18:12:58.315Z,8.40
2023-05-17T18:15:26.906Z,8.10
2023-05-17T18:17:57.123Z,10.20
2023-05-17T18:20:26.670Z,7.80
2023-05-17T18:22:55.178Z,6.70
2023-05-17T18:25:23.737Z,8.70
2023-05-17T18:27:52.211Z,9.50
2023-05-17T18:30:20.775Z,8.00
2023-05-17T18:32:49.330Z,7.80
2023-05-17T18:35:17.823Z,8.50
2023-05-17T18:37:46.311Z,9.60
2023-05-17T18:40:15.136Z,11.40
2023-05-17T18:42:43.844Z,8.10
2023-05-17T18:45:12.275Z,6.80
2023-05-17T18:47:40.681Z,8.90
2023-05-17T18:50:09.255Z,7.70
2023-05-17T18:52:38.542Z,6.50
2023-05-17T18:55:10.769Z,8.50
2023-05-17T18:57:39.259Z,9.30
2023-05-17T19:00:08.896Z,6.80
2023-05-17T19:02:37.360Z,7.00
2023-05-17T19:05:06.283Z,10.20
2023-05-17T19:07:34.911Z,7.70
2023-05-17T19:10:04.553Z,7.80
2023-05-17T19:12:32.973Z,7.90
2023-05-17T19:15:01.410Z,8.30
2023-05-17T19:17:30.141Z,9.40
2023-05-17T19:19:58.643Z,8.50
2023-05-17T19:22:27.247Z,9.50
2023-05-17T19:24:56.150Z,7.90
2023-05-17T19:27:24.530Z,7.60
2023-05-17T19:29:52.943Z,9.50
2023-05-17T19:32:22.981Z,9.80
2023-05-17T19:34:51.525Z,7.70
2023-05-17T19:37:19.912Z,7.60
2023-05-17T19:39:48.367Z,8.30
2023-05-17T19:42:17.381Z,7.20
2023-05-17T19:44:45.905Z,7.00
2023-05-17T19:47:14.386Z,6.80
2023-05-17T19:49:43.504Z,6.90
2023-05-17T19:52:12.125Z,6.20
2023-05-17T19:54:40.562Z,10.10
2023-05-17T19:57:09.494Z,7.70
2023-05-17T19:59:39.564Z,6.60
2023-05-17T20:02:07.994Z,6.60
2023-05-17T20:04:36.440Z,6.50
2023-05-17T20:07:04.857Z,6.70
2023-05-17T20:09:33.402Z,7.60
2023-05-17T20:12:02.041Z,6.90
2023-05-17T20:14:30.560Z,6.40
2023-05-17T20:16:59.032Z,7.10
2023-05-17T20:19:27.646Z,8.60
2023-05-17T20:21:56.453Z,7.10
2023-05-17T20:24:26.105Z,11.90
2023-05-17T20:26:54.745Z,5.40
2023-05-17T20:29:23.230Z,8.90
2023-05-17T20:31:51.667Z,8.50
2023-05-17T20:34:20.197Z,7.50
2023-05-17T20:36:48.655Z,7.20
2023-05-17T20:39:17.251Z,8.60
2023-05-17T20:41:47.830Z,7.20
2023-05-17T20:44:19.726Z,7.00
2023-05-17T20:46:49.328Z,7.30
2023-05-17T20:49:18.344Z,6.70
2023-05-17T20:51:46.876Z,6.60
2023-05-17T20:54:15.355Z,8.40
2023-05-17T20:56:43.793Z,6.50
2023-05-17T20:59:12.165Z,9.40
2023-05-17T21:01:41.681Z,6.60
2023-05-17T21:04:11.321Z,8.60
2023-05-17T21:06:39.711Z,6.60
2023-05-17T21:09:08.640Z,5.90
2023-05-17T21:11:37.257Z,6.30
2023-05-17T21:14:05.738Z,8.40
2023-05-17T21:16:35.615Z,6.60
2023-05-17T21:19:04.635Z,6.40
2023-05-17T21:21:33.069Z,9.00
2023-05-17T21:24:01.418Z,7.30
2023-05-17T21:26:30.184Z,6.40
2023-05-17T21:28:58.644Z,8.20
2023-05-17T21:31:28.504Z,7.30
2023-05-17T21:33:56.923Z,7.80
2023-05-17T21:36:25.367Z,9.00
2023-05-17T21:38:53.824Z,10.80
2023-05-17T21:41:22.546Z,7.80
2023-05-17T21:43:51.013Z,7.20
2023-05-17T21:46:19.565Z,7.90
2023-05-17T21:48:47.989Z,10.70
2023-05-17T21:55:11.607Z,9.10
2023-05-17T21:57:40.055Z,8.60
2023-05-17T22:00:13.095Z,6.80
2023-05-17T22:02:46.042Z,8.30
2023-05-17T22:05:14.815Z,7.80
2023-05-17T22:07:43.346Z,6.80
2023-05-17T22:10:12.821Z,11.70
2023-05-17T22:12:41.256Z,7.00
2023-05-17T22:15:10.131Z,7.50
2023-05-17T22:17:47.774Z,6.60
2023-05-17T22:20:29.462Z,6.90
2023-05-17T22:22:58.731Z,7.80
2023-05-17T22:25:27.088Z,9.50
2023-05-17T22:27:55.427Z,6.60
2023-05-17T22:30:23.789Z,6.10
2023-05-17T22:32:54.871Z,7.10
2023-05-17T22:35:24.527Z,7.40
2023-05-17T22:37:53.710Z,7.90
2023-05-17T22:40:22.225Z,7.70
2023-05-17T22:42:52.095Z,6.30
2023-05-17T22:45:20.638Z,6.80
2023-05-17T22:47:49.025Z,6.00
2023-05-17T22:50:19.369Z,5.80
2023-05-17T22:52:47.727Z,6.60
2023-05-17T22:55:24.409Z,7.70
2023-05-17T22:57:53.438Z,7.70
2023-05-17T23:00:22.036Z,7.00
2023-05-17T23:02:50.814Z,7.30
2023-05-17T23:05:19.237Z,6.40
2023-05-17T23:07:47.980Z,8.20
2023-05-17T23:10:16.422Z,7.40
2023-05-17T23:12:44.868Z,6.70
2023-05-17T23:15:13.215Z,7.00
2023-05-17T23:17:41.649Z,8.80
2023-05-17T23:20:11.215Z,7.60
2023-05-17T23:22:39.960Z,8.60
2023-05-17T23:25:08.972Z,6.60
2023-05-17T23:27:37.493Z,8.30
2023-05-17T23:30:06.946Z,6.00
2023-05-17T23:32:35.383Z,6.50
2023-05-17T23:35:04.161Z,8.00
2023-05-17T23:37:33.571Z,6.90
2023-05-17T23:40:02.836Z,9.00
2023-05-17T23:42:32.031Z,7.80
2023-05-17T23:45:00.805Z,7.80
2023-05-17T23:47:29.390Z,7.70
2023-05-17T23:49:57.944Z,9.30
2023-05-17T23:52:30.110Z,6.40
2023-05-17T23:54:59.245Z,7.50
2023-05-17T23:58:09.577Z,9.90
